sensor_id;sensor_type;location;lat;lon;timestamp;temperature;humidity
43338;DHT22;28933;52.492;13.434;2023-07-13T00:00:42;22.20;71.50
43338;DHT22;28933;52.492;13.434;2023-07-13T00:03:28;22.20;71.70
43338;DHT22;28933;52.492;13.434;2023-07-13T00:06:20;22.20;71.80
43338;DHT22;28933;52.492;13.434;2023-07-13T00:09:07;22.10;71.80
43338;DHT22;28933;52.492;13.434;2023-07-13T00:11:55;22.10;71.90
43338;DHT22;28933;52.492;13.434;2023-07-13T00:14:42;22.10;72.10
43338;DHT22;28933;52.492;13.434;2023-07-13T00:17:28;22.00;72.20
43338;DHT22;28933;52.492;13.434;2023-07-13T00:20:14;22.00;72.30
43338;DHT22;28933;52.492;13.434;2023-07-13T00:23:00;21.90;72.50
43338;DHT22;28933;52.492;13.434;2023-07-13T00:25:46;21.80;72.60
43338;DHT22;28933;52.492;13.434;2023-07-13T00:28:33;21.80;72.80
43338;DHT22;28933;52.492;13.434;2023-07-13T00:31:19;21.80;73.00
43338;DHT22;28933;52.492;13.434;2023-07-13T00:34:05;21.80;72.90
43338;DHT22;28933;52.492;13.434;2023-07-13T00:36:51;21.80;73.10
43338;DHT22;28933;52.492;13.434;2023-07-13T00:39:37;21.80;73.10
43338;DHT22;28933;52.492;13.434;2023-07-13T00:42:24;21.70;73.10
43338;DHT22;28933;52.492;13.434;2023-07-13T00:47:59;21.70;73.00
43338;DHT22;28933;52.492;13.434;2023-07-13T00:50:48;21.70;73.20
43338;DHT22;28933;52.492;13.434;2023-07-13T00:53:34;21.70;73.20
43338;DHT22;28933;52.492;13.434;2023-07-13T00:56:21;21.70;73.10
43338;DHT22;28933;52.492;13.434;2023-07-13T00:59:07;21.70;73.20
43338;DHT22;28933;52.492;13.434;2023-07-13T01:01:54;21.60;73.50
43338;DHT22;28933;52.492;13.434;2023-07-13T01:04:40;21.60;73.20
43338;DHT22;28933;52.492;13.434;2023-07-13T01:07:29;21.50;73.50
43338;DHT22;28933;52.492;13.434;2023-07-13T01:10:15;21.50;73.70
43338;DHT22;28933;52.492;13.434;2023-07-13T01:13:01;21.50;73.70
43338;DHT22;28933;52.492;13.434;2023-07-13T01:15:50;21.50;74.10
43338;DHT22;28933;52.492;13.434;2023-07-13T01:18:37;21.40;74.30
43338;DHT22;28933;52.492;13.434;2023-07-13T01:21:24;21.40;74.60
43338;DHT22;28933;52.492;13.434;2023-07-13T01:24:10;21.40;74.80
43338;DHT22;28933;52.492;13.434;2023-07-13T01:26:56;21.30;75.10
43338;DHT22;28933;52.492;13.434;2023-07-13T01:29:44;21.30;75.30
43338;DHT22;28933;52.492;13.434;2023-07-13T01:32:32;21.30;75.50
43338;DHT22;28933;52.492;13.434;2023-07-13T01:35:19;21.30;75.50
43338;DHT22;28933;52.492;13.434;2023-07-13T01:38:16;21.20;75.60
43338;DHT22;28933;52.492;13.434;2023-07-13T01:41:03;21.20;75.70
43338;DHT22;28933;52.492;13.434;2023-07-13T01:43:49;21.20;76.00
43338;DHT22;28933;52.492;13.434;2023-07-13T01:46:35;21.20;76.20
43338;DHT22;28933;52.492;13.434;2023-07-13T01:49:27;21.20;76.30
43338;DHT22;28933;52.492;13.434;2023-07-13T01:52:13;21.20;76.60
43338;DHT22;28933;52.492;13.434;2023-07-13T01:54:59;21.20;76.70
43338;DHT22;28933;52.492;13.434;2023-07-13T01:57:45;21.20;76.80
43338;DHT22;28933;52.492;13.434;2023-07-13T02:00:32;21.10;77.10
43338;DHT22;28933;52.492;13.434;2023-07-13T02:03:18;21.10;77.20
43338;DHT22;28933;52.492;13.434;2023-07-13T02:06:05;21.10;77.40
43338;DHT22;28933;52.492;13.434;2023-07-13T02:08:51;21.10;77.60
43338;DHT22;28933;52.492;13.434;2023-07-13T02:11:37;21.10;77.60
43338;DHT22;28933;52.492;13.434;2023-07-13T02:14:23;21.10;77.60
43338;DHT22;28933;52.492;13.434;2023-07-13T02:17:10;21.20;77.80
43338;DHT22;28933;52.492;13.434;2023-07-13T02:19:56;21.10;77.40
43338;DHT22;28933;52.492;13.434;2023-07-13T02:22:42;21.20;77.40
43338;DHT22;28933;52.492;13.434;2023-07-13T02:25:28;21.20;77.50
43338;DHT22;28933;52.492;13.434;2023-07-13T02:28:14;21.20;77.60
43338;DHT22;28933;52.492;13.434;2023-07-13T02:31:12;21.10;77.50
43338;DHT22;28933;52.492;13.434;2023-07-13T02:33:58;21.10;77.80
43338;DHT22;28933;52.492;13.434;2023-07-13T02:36:44;21.10;77.70
43338;DHT22;28933;52.492;13.434;2023-07-13T02:39:30;21.00;77.80
43338;DHT22;28933;52.492;13.434;2023-07-13T02:42:18;21.00;78.00
43338;DHT22;28933;52.492;13.434;2023-07-13T02:45:05;21.00;78.10
43338;DHT22;28933;52.492;13.434;2023-07-13T02:47:51;21.00;78.30
43338;DHT22;28933;52.492;13.434;2023-07-13T02:50:37;20.90;78.40
43338;DHT22;28933;52.492;13.434;2023-07-13T02:53:23;20.90;78.50
43338;DHT22;28933;52.492;13.434;2023-07-13T02:56:08;20.80;78.80
43338;DHT22;28933;52.492;13.434;2023-07-13T02:58:55;20.80;78.80
43338;DHT22;28933;52.492;13.434;2023-07-13T03:01:41;20.80;79.00
43338;DHT22;28933;52.492;13.434;2023-07-13T03:04:26;20.80;79.20
43338;DHT22;28933;52.492;13.434;2023-07-13T03:07:12;20.80;79.40
43338;DHT22;28933;52.492;13.434;2023-07-13T03:09:59;20.80;79.60
43338;DHT22;28933;52.492;13.434;2023-07-13T03:12:45;20.80;79.70
43338;DHT22;28933;52.492;13.434;2023-07-13T03:15:31;20.80;79.70
43338;DHT22;28933;52.492;13.434;2023-07-13T03:18:17;20.80;79.90
43338;DHT22;28933;52.492;13.434;2023-07-13T03:21:04;20.80;80.00
43338;DHT22;28933;52.492;13.434;2023-07-13T03:23:50;20.80;79.90
43338;DHT22;28933;52.492;13.434;2023-07-13T03:26:36;20.80;79.90
43338;DHT22;28933;52.492;13.434;2023-07-13T03:29:22;20.80;79.90
43338;DHT22;28933;52.492;13.434;2023-07-13T03:32:08;20.80;80.00
43338;DHT22;28933;52.492;13.434;2023-07-13T03:34:54;20.80;80.10
43338;DHT22;28933;52.492;13.434;2023-07-13T03:37:40;20.80;80.10
43338;DHT22;28933;52.492;13.434;2023-07-13T03:40:28;20.80;80.30
43338;DHT22;28933;52.492;13.434;2023-07-13T03:43:14;20.90;80.30
43338;DHT22;28933;52.492;13.434;2023-07-13T03:46:00;20.90;80.40
43338;DHT22;28933;52.492;13.434;2023-07-13T03:48:47;20.90;80.90
43338;DHT22;28933;52.492;13.434;2023-07-13T03:51:33;20.90;80.40
43338;DHT22;28933;52.492;13.434;2023-07-13T03:54:19;20.90;80.70
43338;DHT22;28933;52.492;13.434;2023-07-13T03:57:05;21.00;80.50
43338;DHT22;28933;52.492;13.434;2023-07-13T03:59:51;21.00;80.60
43338;DHT22;28933;52.492;13.434;2023-07-13T04:02:37;21.10;80.70
43338;DHT22;28933;52.492;13.434;2023-07-13T04:05:23;21.00;80.70
43338;DHT22;28933;52.492;13.434;2023-07-13T04:08:09;21.10;80.80
43338;DHT22;28933;52.492;13.434;2023-07-13T04:10:55;21.10;80.90
43338;DHT22;28933;52.492;13.434;2023-07-13T04:13:41;21.10;80.90
43338;DHT22;28933;52.492;13.434;2023-07-13T04:16:27;21.10;80.90
43338;DHT22;28933;52.492;13.434;2023-07-13T04:19:13;21.10;80.90
43338;DHT22;28933;52.492;13.434;2023-07-13T04:21:59;21.20;80.90
43338;DHT22;28933;52.492;13.434;2023-07-13T04:24:45;21.20;80.80
43338;DHT22;28933;52.492;13.434;2023-07-13T04:27:34;21.20;80.70
43338;DHT22;28933;52.492;13.434;2023-07-13T04:30:20;21.20;80.70
43338;DHT22;28933;52.492;13.434;2023-07-13T04:33:07;21.30;80.80
43338;DHT22;28933;52.492;13.434;2023-07-13T04:35:55;21.30;80.40
43338;DHT22;28933;52.492;13.434;2023-07-13T04:38:42;21.30;80.00
43338;DHT22;28933;52.492;13.434;2023-07-13T04:41:28;21.30;79.80
43338;DHT22;28933;52.492;13.434;2023-07-13T04:44:14;21.30;79.80
43338;DHT22;28933;52.492;13.434;2023-07-13T04:47:00;21.40;79.90
43338;DHT22;28933;52.492;13.434;2023-07-13T04:49:46;21.40;80.40
43338;DHT22;28933;52.492;13.434;2023-07-13T04:52:32;21.40;80.30
43338;DHT22;28933;52.492;13.434;2023-07-13T04:55:19;21.40;79.80
43338;DHT22;28933;52.492;13.434;2023-07-13T04:58:05;21.40;79.80
43338;DHT22;28933;52.492;13.434;2023-07-13T05:00:52;21.50;79.70
43338;DHT22;28933;52.492;13.434;2023-07-13T05:03:38;21.50;79.50
43338;DHT22;28933;52.492;13.434;2023-07-13T05:06:23;21.60;79.60
43338;DHT22;28933;52.492;13.434;2023-07-13T05:09:09;21.60;79.40
43338;DHT22;28933;52.492;13.434;2023-07-13T05:11:55;21.60;79.20
43338;DHT22;28933;52.492;13.434;2023-07-13T05:14:41;21.60;79.20
43338;DHT22;28933;52.492;13.434;2023-07-13T05:17:27;21.60;79.60
43338;DHT22;28933;52.492;13.434;2023-07-13T05:20:13;21.70;79.60
43338;DHT22;28933;52.492;13.434;2023-07-13T05:23:00;21.70;79.70
43338;DHT22;28933;52.492;13.434;2023-07-13T05:25:45;21.80;79.30
43338;DHT22;28933;52.492;13.434;2023-07-13T05:28:31;21.80;79.30
43338;DHT22;28933;52.492;13.434;2023-07-13T05:31:18;21.80;79.20
43338;DHT22;28933;52.492;13.434;2023-07-13T05:34:04;21.80;78.90
43338;DHT22;28933;52.492;13.434;2023-07-13T05:36:50;21.90;78.80
43338;DHT22;28933;52.492;13.434;2023-07-13T05:39:36;21.90;78.80
43338;DHT22;28933;52.492;13.434;2023-07-13T05:42:22;22.00;78.70
43338;DHT22;28933;52.492;13.434;2023-07-13T05:45:08;22.00;78.70
43338;DHT22;28933;52.492;13.434;2023-07-13T05:47:54;22.00;78.70
43338;DHT22;28933;52.492;13.434;2023-07-13T05:50:40;22.10;78.70
43338;DHT22;28933;52.492;13.434;2023-07-13T05:53:26;22.10;78.80
43338;DHT22;28933;52.492;13.434;2023-07-13T05:56:12;22.10;79.10
43338;DHT22;28933;52.492;13.434;2023-07-13T05:58:58;22.10;78.90
43338;DHT22;28933;52.492;13.434;2023-07-13T06:01:44;22.20;79.00
43338;DHT22;28933;52.492;13.434;2023-07-13T06:04:30;22.20;78.90
43338;DHT22;28933;52.492;13.434;2023-07-13T06:07:16;22.30;78.90
43338;DHT22;28933;52.492;13.434;2023-07-13T06:10:02;22.30;78.80
43338;DHT22;28933;52.492;13.434;2023-07-13T06:12:48;22.20;78.70
43338;DHT22;28933;52.492;13.434;2023-07-13T06:15:34;22.20;78.70
43338;DHT22;28933;52.492;13.434;2023-07-13T06:18:20;22.20;79.10
43338;DHT22;28933;52.492;13.434;2023-07-13T06:21:10;22.20;78.90
43338;DHT22;28933;52.492;13.434;2023-07-13T06:23:56;22.30;78.80
43338;DHT22;28933;52.492;13.434;2023-07-13T06:26:42;22.30;78.80
43338;DHT22;28933;52.492;13.434;2023-07-13T06:29:28;22.30;78.80
43338;DHT22;28933;52.492;13.434;2023-07-13T06:32:14;22.30;78.90
43338;DHT22;28933;52.492;13.434;2023-07-13T06:35:00;22.40;78.40
43338;DHT22;28933;52.492;13.434;2023-07-13T06:37:46;22.40;78.30
43338;DHT22;28933;52.492;13.434;2023-07-13T06:40:33;22.40;78.20
43338;DHT22;28933;52.492;13.434;2023-07-13T06:43:19;22.40;78.10
43338;DHT22;28933;52.492;13.434;2023-07-13T06:46:06;22.40;78.20
43338;DHT22;28933;52.492;13.434;2023-07-13T06:48:52;22.40;78.00
43338;DHT22;28933;52.492;13.434;2023-07-13T06:51:38;22.50;78.20
43338;DHT22;28933;52.492;13.434;2023-07-13T06:54:24;22.50;78.30
43338;DHT22;28933;52.492;13.434;2023-07-13T06:57:10;22.60;78.00
43338;DHT22;28933;52.492;13.434;2023-07-13T06:59:56;22.60;77.90
43338;DHT22;28933;52.492;13.434;2023-07-13T07:02:43;22.70;78.30
43338;DHT22;28933;52.492;13.434;2023-07-13T07:05:29;22.70;77.60
43338;DHT22;28933;52.492;13.434;2023-07-13T07:08:15;22.70;77.50
43338;DHT22;28933;52.492;13.434;2023-07-13T07:11:00;22.70;77.20
43338;DHT22;28933;52.492;13.434;2023-07-13T07:13:47;22.80;76.70
43338;DHT22;28933;52.492;13.434;2023-07-13T07:16:33;22.90;76.30
43338;DHT22;28933;52.492;13.434;2023-07-13T07:19:19;22.80;76.00
43338;DHT22;28933;52.492;13.434;2023-07-13T07:22:05;22.90;76.60
43338;DHT22;28933;52.492;13.434;2023-07-13T07:24:51;23.00;76.00
43338;DHT22;28933;52.492;13.434;2023-07-13T07:27:37;23.00;76.00
43338;DHT22;28933;52.492;13.434;2023-07-13T07:30:23;23.10;75.60
43338;DHT22;28933;52.492;13.434;2023-07-13T07:33:09;23.20;75.30
43338;DHT22;28933;52.492;13.434;2023-07-13T07:35:55;23.30;75.40
43338;DHT22;28933;52.492;13.434;2023-07-13T07:38:41;23.50;75.00
43338;DHT22;28933;52.492;13.434;2023-07-13T07:41:27;23.70;74.50
43338;DHT22;28933;52.492;13.434;2023-07-13T07:44:13;23.90;74.70
43338;DHT22;28933;52.492;13.434;2023-07-13T07:47:02;24.20;73.60
43338;DHT22;28933;52.492;13.434;2023-07-13T07:49:48;24.30;72.60
43338;DHT22;28933;52.492;13.434;2023-07-13T07:52:34;24.50;72.00
43338;DHT22;28933;52.492;13.434;2023-07-13T07:55:20;24.60;71.40
43338;DHT22;28933;52.492;13.434;2023-07-13T07:58:07;24.70;71.70
43338;DHT22;28933;52.492;13.434;2023-07-13T08:00:53;24.80;71.40
43338;DHT22;28933;52.492;13.434;2023-07-13T08:03:39;24.90;71.00
43338;DHT22;28933;52.492;13.434;2023-07-13T08:06:25;25.10;71.40
43338;DHT22;28933;52.492;13.434;2023-07-13T08:09:11;25.10;70.60
43338;DHT22;28933;52.492;13.434;2023-07-13T08:11:57;25.20;70.60
43338;DHT22;28933;52.492;13.434;2023-07-13T08:14:43;25.30;70.20
43338;DHT22;28933;52.492;13.434;2023-07-13T08:17:29;25.30;70.00
43338;DHT22;28933;52.492;13.434;2023-07-13T08:20:15;25.40;69.80
43338;DHT22;28933;52.492;13.434;2023-07-13T08:23:02;25.50;69.70
43338;DHT22;28933;52.492;13.434;2023-07-13T08:25:52;25.60;68.90
43338;DHT22;28933;52.492;13.434;2023-07-13T08:28:38;25.70;68.90
43338;DHT22;28933;52.492;13.434;2023-07-13T08:31:24;25.70;68.70
43338;DHT22;28933;52.492;13.434;2023-07-13T08:34:10;25.80;68.50
43338;DHT22;28933;52.492;13.434;2023-07-13T08:36:56;25.80;67.90
43338;DHT22;28933;52.492;13.434;2023-07-13T08:39:42;25.90;67.60
43338;DHT22;28933;52.492;13.434;2023-07-13T08:42:39;26.00;67.00
43338;DHT22;28933;52.492;13.434;2023-07-13T08:57:16;26.20;67.00
43338;DHT22;28933;52.492;13.434;2023-07-13T09:00:03;26.10;66.80
43338;DHT22;28933;52.492;13.434;2023-07-13T09:02:56;26.10;66.70
43338;DHT22;28933;52.492;13.434;2023-07-13T09:05:42;26.10;66.80
43338;DHT22;28933;52.492;13.434;2023-07-13T09:11:49;26.00;66.80
43338;DHT22;28933;52.492;13.434;2023-07-13T09:14:54;25.90;66.60
43338;DHT22;28933;52.492;13.434;2023-07-13T09:17:48;26.00;66.80
43338;DHT22;28933;52.492;13.434;2023-07-13T09:20:42;26.00;66.90
43338;DHT22;28933;52.492;13.434;2023-07-13T09:23:31;26.00;65.90
43338;DHT22;28933;52.492;13.434;2023-07-13T09:26:22;25.90;65.80
43338;DHT22;28933;52.492;13.434;2023-07-13T09:29:40;25.90;65.90
43338;DHT22;28933;52.492;13.434;2023-07-13T09:32:26;25.90;65.70
43338;DHT22;28933;52.492;13.434;2023-07-13T09:35:16;25.90;65.00
43338;DHT22;28933;52.492;13.434;2023-07-13T09:41:17;25.90;64.70
43338;DHT22;28933;52.492;13.434;2023-07-13T09:44:08;26.00;64.50
43338;DHT22;28933;52.492;13.434;2023-07-13T09:46:55;25.90;64.30
43338;DHT22;28933;52.492;13.434;2023-07-13T09:49:41;25.90;64.20
43338;DHT22;28933;52.492;13.434;2023-07-13T09:52:41;25.90;64.50
43338;DHT22;28933;52.492;13.434;2023-07-13T09:55:37;26.00;64.20
43338;DHT22;28933;52.492;13.434;2023-07-13T09:58:26;26.10;62.60
43338;DHT22;28933;52.492;13.434;2023-07-13T10:01:15;26.00;62.60
43338;DHT22;28933;52.492;13.434;2023-07-13T10:04:01;26.10;62.70
43338;DHT22;28933;52.492;13.434;2023-07-13T10:06:47;26.10;62.40
43338;DHT22;28933;52.492;13.434;2023-07-13T10:09:33;26.10;62.20
43338;DHT22;28933;52.492;13.434;2023-07-13T10:12:21;26.00;61.60
43338;DHT22;28933;52.492;13.434;2023-07-13T10:15:22;26.00;61.30
43338;DHT22;28933;52.492;13.434;2023-07-13T10:18:09;26.00;61.50
43338;DHT22;28933;52.492;13.434;2023-07-13T10:21:12;26.00;61.60
43338;DHT22;28933;52.492;13.434;2023-07-13T10:27:34;26.00;61.60
43338;DHT22;28933;52.492;13.434;2023-07-13T10:30:21;26.10;61.50
43338;DHT22;28933;52.492;13.434;2023-07-13T10:33:12;26.10;61.50
43338;DHT22;28933;52.492;13.434;2023-07-13T10:39:00;26.10;61.40
43338;DHT22;28933;52.492;13.434;2023-07-13T10:41:57;26.20;61.30
43338;DHT22;28933;52.492;13.434;2023-07-13T10:44:44;26.20;60.70
43338;DHT22;28933;52.492;13.434;2023-07-13T10:47:30;26.20;60.80
43338;DHT22;28933;52.492;13.434;2023-07-13T10:50:22;26.30;60.20
43338;DHT22;28933;52.492;13.434;2023-07-13T10:53:28;26.30;60.30
43338;DHT22;28933;52.492;13.434;2023-07-13T10:56:24;26.30;60.20
43338;DHT22;28933;52.492;13.434;2023-07-13T10:59:25;26.30;60.00
43338;DHT22;28933;52.492;13.434;2023-07-13T11:02:36;26.30;59.80
43338;DHT22;28933;52.492;13.434;2023-07-13T11:05:31;26.30;60.10
43338;DHT22;28933;52.492;13.434;2023-07-13T11:08:51;26.30;59.90
43338;DHT22;28933;52.492;13.434;2023-07-13T11:11:38;26.40;59.00
43338;DHT22;28933;52.492;13.434;2023-07-13T11:14:42;26.40;58.50
43338;DHT22;28933;52.492;13.434;2023-07-13T11:20:36;26.40;58.60
43338;DHT22;28933;52.492;13.434;2023-07-13T11:23:30;26.50;58.60
43338;DHT22;28933;52.492;13.434;2023-07-13T11:26:39;26.50;57.90
43338;DHT22;28933;52.492;13.434;2023-07-13T11:29:37;26.50;58.20
43338;DHT22;28933;52.492;13.434;2023-07-13T11:32:31;26.60;58.70
43338;DHT22;28933;52.492;13.434;2023-07-13T11:35:23;26.60;58.20
43338;DHT22;28933;52.492;13.434;2023-07-13T11:38:17;26.70;58.20
43338;DHT22;28933;52.492;13.434;2023-07-13T11:41:10;26.80;57.70
43338;DHT22;28933;52.492;13.434;2023-07-13T11:44:08;26.80;57.20
43338;DHT22;28933;52.492;13.434;2023-07-13T11:47:08;26.80;56.90
43338;DHT22;28933;52.492;13.434;2023-07-13T11:49:55;26.90;56.90
43338;DHT22;28933;52.492;13.434;2023-07-13T11:52:43;26.90;56.90
43338;DHT22;28933;52.492;13.434;2023-07-13T11:55:29;26.90;57.10
43338;DHT22;28933;52.492;13.434;2023-07-13T11:58:21;26.90;57.50
43338;DHT22;28933;52.492;13.434;2023-07-13T12:01:20;27.00;57.20
43338;DHT22;28933;52.492;13.434;2023-07-13T12:04:19;27.10;57.60
43338;DHT22;28933;52.492;13.434;2023-07-13T12:07:15;27.10;57.50
43338;DHT22;28933;52.492;13.434;2023-07-13T12:13:01;27.30;56.40
43338;DHT22;28933;52.492;13.434;2023-07-13T12:15:48;27.30;55.90
43338;DHT22;28933;52.492;13.434;2023-07-13T12:18:34;27.30;55.50
43338;DHT22;28933;52.492;13.434;2023-07-13T12:21:28;27.30;55.80
43338;DHT22;28933;52.492;13.434;2023-07-13T12:24:17;27.40;55.70
43338;DHT22;28933;52.492;13.434;2023-07-13T12:27:04;27.40;55.60
43338;DHT22;28933;52.492;13.434;2023-07-13T12:29:53;27.50;55.90
43338;DHT22;28933;52.492;13.434;2023-07-13T12:32:43;27.50;56.00
43338;DHT22;28933;52.492;13.434;2023-07-13T12:35:49;27.60;55.90
43338;DHT22;28933;52.492;13.434;2023-07-13T12:38:35;27.60;56.20
43338;DHT22;28933;52.492;13.434;2023-07-13T12:41:21;27.50;55.00
43338;DHT22;28933;52.492;13.434;2023-07-13T12:44:15;27.50;55.00
43338;DHT22;28933;52.492;13.434;2023-07-13T12:47:06;27.50;54.80
43338;DHT22;28933;52.492;13.434;2023-07-13T12:49:59;27.50;55.00
43338;DHT22;28933;52.492;13.434;2023-07-13T12:52:56;27.50;55.30
43338;DHT22;28933;52.492;13.434;2023-07-13T12:55:53;27.50;54.90
43338;DHT22;28933;52.492;13.434;2023-07-13T12:58:41;27.50;55.50
43338;DHT22;28933;52.492;13.434;2023-07-13T13:01:33;27.50;54.90
43338;DHT22;28933;52.492;13.434;2023-07-13T13:04:20;27.60;55.20
43338;DHT22;28933;52.492;13.434;2023-07-13T13:07:08;27.70;55.30
43338;DHT22;28933;52.492;13.434;2023-07-13T13:09:55;27.70;55.00
43338;DHT22;28933;52.492;13.434;2023-07-13T13:12:42;27.80;54.80
43338;DHT22;28933;52.492;13.434;2023-07-13T13:15:30;27.80;54.40
43338;DHT22;28933;52.492;13.434;2023-07-13T13:18:18;27.80;53.80
43338;DHT22;28933;52.492;13.434;2023-07-13T13:21:05;27.80;53.70
43338;DHT22;28933;52.492;13.434;2023-07-13T13:23:51;27.80;54.00
43338;DHT22;28933;52.492;13.434;2023-07-13T13:26:39;27.90;54.00
43338;DHT22;28933;52.492;13.434;2023-07-13T13:29:26;28.00;54.20
43338;DHT22;28933;52.492;13.434;2023-07-13T13:32:13;28.10;54.00
43338;DHT22;28933;52.492;13.434;2023-07-13T13:34:59;28.20;54.00
43338;DHT22;28933;52.492;13.434;2023-07-13T13:37:46;28.30;54.20
43338;DHT22;28933;52.492;13.434;2023-07-13T13:40:36;28.30;54.30
43338;DHT22;28933;52.492;13.434;2023-07-13T13:43:26;28.40;54.50
43338;DHT22;28933;52.492;13.434;2023-07-13T13:46:19;28.50;54.30
43338;DHT22;28933;52.492;13.434;2023-07-13T13:49:15;28.60;54.20
43338;DHT22;28933;52.492;13.434;2023-07-13T13:52:03;28.70;53.20
43338;DHT22;28933;52.492;13.434;2023-07-13T13:54:49;28.70;52.30
43338;DHT22;28933;52.492;13.434;2023-07-13T13:57:35;28.80;52.50
43338;DHT22;28933;52.492;13.434;2023-07-13T14:00:22;28.80;52.60
43338;DHT22;28933;52.492;13.434;2023-07-13T14:03:15;28.80;53.30
43338;DHT22;28933;52.492;13.434;2023-07-13T14:06:03;29.00;52.70
43338;DHT22;28933;52.492;13.434;2023-07-13T14:08:49;29.00;52.40
43338;DHT22;28933;52.492;13.434;2023-07-13T14:11:34;29.00;52.50
43338;DHT22;28933;52.492;13.434;2023-07-13T14:14:23;29.10;52.70
43338;DHT22;28933;52.492;13.434;2023-07-13T14:17:22;29.10;52.90
43338;DHT22;28933;52.492;13.434;2023-07-13T14:20:19;29.30;53.00
43338;DHT22;28933;52.492;13.434;2023-07-13T14:23:05;29.30;52.40
43338;DHT22;28933;52.492;13.434;2023-07-13T14:25:51;29.30;51.60
43338;DHT22;28933;52.492;13.434;2023-07-13T14:28:41;29.30;51.30
43338;DHT22;28933;52.492;13.434;2023-07-13T14:31:28;29.30;51.40
43338;DHT22;28933;52.492;13.434;2023-07-13T14:34:14;29.20;51.40
43338;DHT22;28933;52.492;13.434;2023-07-13T14:37:00;29.20;51.90
43338;DHT22;28933;52.492;13.434;2023-07-13T14:39:47;29.10;51.70
43338;DHT22;28933;52.492;13.434;2023-07-13T14:42:35;29.00;52.10
43338;DHT22;28933;52.492;13.434;2023-07-13T14:45:21;29.00;52.00
43338;DHT22;28933;52.492;13.434;2023-07-13T14:48:21;29.10;51.90
43338;DHT22;28933;52.492;13.434;2023-07-13T14:51:08;29.20;51.90
43338;DHT22;28933;52.492;13.434;2023-07-13T14:53:56;29.20;51.90
43338;DHT22;28933;52.492;13.434;2023-07-13T14:56:41;29.30;52.20
43338;DHT22;28933;52.492;13.434;2023-07-13T14:59:27;29.40;52.30
43338;DHT22;28933;52.492;13.434;2023-07-13T15:02:29;29.50;52.00
43338;DHT22;28933;52.492;13.434;2023-07-13T15:05:18;29.50;51.70
43338;DHT22;28933;52.492;13.434;2023-07-13T15:08:05;29.50;51.30
43338;DHT22;28933;52.492;13.434;2023-07-13T15:10:50;29.40;51.00
43338;DHT22;28933;52.492;13.434;2023-07-13T15:13:37;29.50;51.10
43338;DHT22;28933;52.492;13.434;2023-07-13T15:16:25;29.40;51.10
43338;DHT22;28933;52.492;13.434;2023-07-13T15:19:11;29.40;51.40
43338;DHT22;28933;52.492;13.434;2023-07-13T15:21:57;29.50;51.50
43338;DHT22;28933;52.492;13.434;2023-07-13T15:24:43;29.50;50.90
43338;DHT22;28933;52.492;13.434;2023-07-13T15:27:29;29.50;50.80
43338;DHT22;28933;52.492;13.434;2023-07-13T15:30:15;29.60;50.60
43338;DHT22;28933;52.492;13.434;2023-07-13T15:33:14;29.70;50.30
43338;DHT22;28933;52.492;13.434;2023-07-13T15:36:02;29.80;50.20
43338;DHT22;28933;52.492;13.434;2023-07-13T15:38:52;29.80;49.50
43338;DHT22;28933;52.492;13.434;2023-07-13T15:41:38;29.70;49.20
43338;DHT22;28933;52.492;13.434;2023-07-13T15:44:30;29.70;48.80
43338;DHT22;28933;52.492;13.434;2023-07-13T15:47:16;29.60;48.40
43338;DHT22;28933;52.492;13.434;2023-07-13T15:50:04;29.50;48.80
43338;DHT22;28933;52.492;13.434;2023-07-13T15:52:55;29.50;48.80
43338;DHT22;28933;52.492;13.434;2023-07-13T15:55:44;29.40;49.00
43338;DHT22;28933;52.492;13.434;2023-07-13T15:58:30;29.40;49.00
43338;DHT22;28933;52.492;13.434;2023-07-13T16:01:17;29.40;49.00
43338;DHT22;28933;52.492;13.434;2023-07-13T16:04:03;29.40;48.90
43338;DHT22;28933;52.492;13.434;2023-07-13T16:06:49;29.40;49.20
43338;DHT22;28933;52.492;13.434;2023-07-13T16:09:36;29.30;49.10
43338;DHT22;28933;52.492;13.434;2023-07-13T16:12:22;29.20;49.20
43338;DHT22;28933;52.492;13.434;2023-07-13T16:15:14;29.10;49.00
43338;DHT22;28933;52.492;13.434;2023-07-13T16:18:01;29.10;48.70
43338;DHT22;28933;52.492;13.434;2023-07-13T16:20:47;29.20;48.80
43338;DHT22;28933;52.492;13.434;2023-07-13T16:23:34;29.20;48.80
43338;DHT22;28933;52.492;13.434;2023-07-13T16:29:18;29.20;48.70
43338;DHT22;28933;52.492;13.434;2023-07-13T16:32:10;29.20;48.60
43338;DHT22;28933;52.492;13.434;2023-07-13T16:34:56;29.20;48.50
43338;DHT22;28933;52.492;13.434;2023-07-13T16:37:42;29.10;48.20
43338;DHT22;28933;52.492;13.434;2023-07-13T16:40:32;29.20;48.50
43338;DHT22;28933;52.492;13.434;2023-07-13T16:43:19;29.20;48.20
43338;DHT22;28933;52.492;13.434;2023-07-13T16:46:10;29.10;48.10
43338;DHT22;28933;52.492;13.434;2023-07-13T16:48:57;28.90;47.80
43338;DHT22;28933;52.492;13.434;2023-07-13T16:51:44;28.60;48.20
43338;DHT22;28933;52.492;13.434;2023-07-13T16:54:33;28.40;48.40
43338;DHT22;28933;52.492;13.434;2023-07-13T16:57:22;28.10;48.70
43338;DHT22;28933;52.492;13.434;2023-07-13T17:00:23;28.00;49.00
43338;DHT22;28933;52.492;13.434;2023-07-13T17:03:13;27.80;49.20
43338;DHT22;28933;52.492;13.434;2023-07-13T17:06:00;27.70;49.40
43338;DHT22;28933;52.492;13.434;2023-07-13T17:08:49;27.50;49.90
43338;DHT22;28933;52.492;13.434;2023-07-13T17:11:40;27.40;50.00
43338;DHT22;28933;52.492;13.434;2023-07-13T17:14:26;27.30;50.10
43338;DHT22;28933;52.492;13.434;2023-07-13T17:17:25;27.10;50.90
43338;DHT22;28933;52.492;13.434;2023-07-13T17:23:22;26.10;56.10
43338;DHT22;28933;52.492;13.434;2023-07-13T17:26:09;25.50;58.40
43338;DHT22;28933;52.492;13.434;2023-07-13T17:28:55;25.10;60.30
43338;DHT22;28933;52.492;13.434;2023-07-13T17:31:41;24.70;61.30
43338;DHT22;28933;52.492;13.434;2023-07-13T17:34:28;24.40;63.10
43338;DHT22;28933;52.492;13.434;2023-07-13T17:37:16;23.90;64.10
43338;DHT22;28933;52.492;13.434;2023-07-13T17:40:08;23.50;65.30
43338;DHT22;28933;52.492;13.434;2023-07-13T17:42:58;23.20;65.90
43338;DHT22;28933;52.492;13.434;2023-07-13T17:45:44;23.00;66.60
43338;DHT22;28933;52.492;13.434;2023-07-13T17:48:32;22.80;66.40
43338;DHT22;28933;52.492;13.434;2023-07-13T17:51:19;22.70;67.10
43338;DHT22;28933;52.492;13.434;2023-07-13T17:54:14;22.60;67.30
43338;DHT22;28933;52.492;13.434;2023-07-13T17:57:00;22.50;68.00
43338;DHT22;28933;52.492;13.434;2023-07-13T17:59:46;22.40;68.80
43338;DHT22;28933;52.492;13.434;2023-07-13T18:02:32;22.30;68.70
43338;DHT22;28933;52.492;13.434;2023-07-13T18:05:18;22.10;69.20